CheckWX is a tool to help pilots better visualize weather data.  It is not intended as a substitute for an official pre-flight weather briefing.

12:46:34 UTC

EPPW TAF
Powidz Military Air Base Airport
Poland
TAF EPPW 271100Z 2712/2721 31015KT CAVOK TEMPO 2712/2717 31016G26KT

Jun-27@
12:00 UTC

Jun-27 @ 12:00 UTC

Jun-27@
21:00 UTC

Jun-27 @ 21:00 UTC

TAF EPPW 271100Z 2712/2721 31015KT CAVOK
Wind
  • 310° at 15 KTS
Conditions
No significant weather
Cloud Levels
  • No significant clouds

Jun-27@
12:00 UTC

Jun-27 @ 12:00 UTC

Jun-27@
17:00 UTC

Jun-27 @ 17:00 UTC

TEMPO 2712/2717 31016G26KT

Temporary

Temporary Changes expected for less than half the time period

Wind
  • 310° at 16 KTS
  • {Gusting to 26 KTS